KPOB/POB METAR and TAF weather

Enter ICAO airport designator
Station Type Date Time Source
KPOB METAR 2019/04/18 14:35 UTC NOAA

KPOB 181435Z AUTO 24014G19KT 10SM CLR 22/14 A3009 RMK AO2 SLP191 $


Station Type Date Time Source
KPOB Decoded METAR 2019/04/18 14:35 UTC NOAA

Pope Air Force Base, NC, United States (KPOB) 35-10N 079-02W 61M
Apr 18, 2019 - 10:35 AM EDT / 2019.04.18 1435 UTC
Wind: from the WSW (240 degrees) at 16 MPH (14 KT) gusting to 22 MPH (19 KT):0
Visibility: 10 mile(s):0
Sky conditions: clear
Temperature: 71 F (22 C)
Dew Point: 57 F (14 C)
Relative Humidity: 60%
Pressure (altimeter): 30.09 in. Hg (1018 hPa)
ob: KPOB 181435Z AUTO 24014G19KT 10SM CLR 22/14 A3009 RMK AO2 SLP191
cycle: 14

Station Type Date Time Source
KPOB TAF 2019/04/18 09:09 UTC NOAA

TAF KPOB 180900Z 1809/1915 22006KT 9999 BKN200 QNH3002INS
BECMG 1814/1815 19012G18KT 9999 BKN200 QNH2998INS
BECMG 1817/1818 20015G25KT 9999 SCT035 QNH2998INS
BECMG 1823/1824 17010KT 9999 FEW030 BKN050 520102 QNH2988INS
BECMG 1905/1906 18009KT 9999 BKN015 OVC030 WS020/18035KT QNH2984INS
BECMG 1908/1909 18009KT 9999 BKN008 OVC015 WS020/18040KT QNH2982INS TX28/1820Z TN16/1811Z

Example: see airport list